Time;durP1;ratioP1;P1;durP2;ratioP2;P2;SDS_P1;SDS_P2;PMS_P1;PMS_P2;Temp;Humidity;BMP_temperature;BMP_pressure;BME280_temperature;BME280_humidity;BME280_pressure;Samples;Min_cycle;Max_cycle;Signal;HPM_P1;HPM_P2
2022/05/03 00:01:41;;;;;;;1.95;1.45;;;15.80;58.80;;;;;;10492828;28;20377;-61
2022/05/03 00:07:10;;;;;;;2.13;1.50;;;15.70;58.70;;;;;;10490998;28;20040;-61
2022/05/03 00:12:15;;;;;;;2.10;1.33;;;15.80;58.70;;;;;;10512969;28;20036;-61
2022/05/03 00:17:22;;;;;;;1.90;1.20;;;15.70;58.70;;;;;;10512674;28;20454;-61
2022/05/03 00:22:23;;;;;;;2.00;1.52;;;15.70;58.60;;;;;;10511792;28;20472;-59
2022/05/03 00:27:26;;;;;;;1.50;1.30;;;15.70;58.60;;;;;;10497083;28;20108;-60
2022/05/03 00:32:28;;;;;;;1.67;1.48;;;15.70;58.50;;;;;;10511953;28;20041;-59
2022/05/03 00:37:29;;;;;;;2.42;1.48;;;15.70;58.50;;;;;;10496386;28;20036;-60
2022/05/03 00:42:59;;;;;;;1.92;1.42;;;15.70;58.60;;;;;;10511700;28;20487;-61
2022/05/03 00:48:23;;;;;;;;;;;15.70;58.50;;;;;;10510436;28;20034;-62
2022/05/03 00:53:38;;;;;;;2.08;1.55;;;15.70;58.40;;;;;;10496794;28;19963;-62
2022/05/03 00:59:07;;;;;;;2.25;1.35;;;15.70;58.50;;;;;;10510065;28;20025;-60
2022/05/03 01:04:47;;;;;;;1.63;1.20;;;15.60;58.40;;;;;;10495699;28;20101;-61
2022/05/03 01:10:04;;;;;;;1.73;1.35;;;15.60;58.40;;;;;;10508627;28;20032;-61
2022/05/03 01:15:10;;;;;;;1.25;0.90;;;15.60;58.40;;;;;;10510610;28;20032;-60
2022/05/03 01:20:17;;;;;;;1.40;1.08;;;15.70;59.00;;;;;;10495077;28;20043;-61
2022/05/03 01:25:23;;;;;;;2.22;1.20;;;15.60;58.30;;;;;;10495153;28;20105;-62
2022/05/03 01:30:29;;;;;;;2.33;1.55;;;15.60;58.20;;;;;;10494603;28;20109;-60
2022/05/03 01:35:38;;;;;;;1.67;1.40;;;15.60;58.30;;;;;;10509518;28;20040;-62
2022/05/03 01:41:15;;;;;;;2.17;1.58;;;15.60;58.20;;;;;;10494520;28;20056;-62
2022/05/03 01:46:24;;;;;;;2.30;1.40;;;15.60;58.20;;;;;;10476825;28;20048;-60
2022/05/03 01:51:56;;;;;;;1.17;0.98;;;15.60;58.30;;;;;;10494416;28;20100;-61
2022/05/03 01:57:41;;;;;;;1.48;1.05;;;15.60;58.20;;;;;;10494897;28;20435;-60
2022/05/03 02:03:07;;;;;;;2.15;1.30;;;15.60;58.20;;;;;;10496435;28;20024;-61
2022/05/03 02:08:21;;;;;;;2.03;1.40;;;15.60;58.20;;;;;;10517140;28;20059;-61
2022/05/03 02:19:42;;;;;;;;;;;15.50;58.00;;;;;;10502330;28;20484;-60
2022/05/03 02:25:11;;;;;;;1.42;1.30;;;15.60;58.00;;;;;;10501940;28;19915;-59
2022/05/03 02:30:14;;;;;;;2.53;1.50;;;15.60;58.00;;;;;;10516961;28;20111;-61
2022/05/03 02:35:27;;;;;;;1.35;1.02;;;15.50;57.90;;;;;;10516403;28;20416;-59
2022/05/03 02:40:30;;;;;;;1.02;0.82;;;15.50;58.00;;;;;;10501078;28;20032;-60
2022/05/03 02:45:37;;;;;;;1.58;1.02;;;15.50;58.00;;;;;;10516270;28;20111;-60
2022/05/03 02:51:07;;;;;;;1.65;1.17;;;15.50;57.90;;;;;;10516177;28;20469;-62
2022/05/03 02:56:35;;;;;;;1.43;1.20;;;15.50;58.00;;;;;;10498591;28;20056;-61
2022/05/03 03:02:06;;;;;;;1.70;1.17;;;15.50;57.90;;;;;;10513674;28;20391;-61
2022/05/03 03:07:07;;;;;;;1.92;1.30;;;15.50;57.80;;;;;;10513337;28;20031;-60
2022/05/03 03:12:30;;;;;;;2.08;1.13;;;15.50;57.90;;;;;;10499561;28;20418;-61
2022/05/03 03:17:46;;;;;;;1.80;1.17;;;15.50;57.90;;;;;;10513825;28;20029;-60
2022/05/03 03:22:48;;;;;;;1.65;1.00;;;15.50;57.90;;;;;;10499362;28;20108;-60
2022/05/03 03:27:52;;;;;;;1.92;1.33;;;15.50;57.80;;;;;;10497828;28;20058;-58
2022/05/03 03:32:57;;;;;;;1.50;1.10;;;15.40;57.70;;;;;;10498736;28;20404;-61
2022/05/03 03:38:01;;;;;;;1.25;1.08;;;15.40;57.80;;;;;;10499469;28;20048;-60
2022/05/03 03:43:01;;;;;;;2.40;1.40;;;15.40;57.70;;;;;;10498816;28;20449;-60
2022/05/03 03:48:03;;;;;;;1.67;1.23;;;15.40;57.70;;;;;;10513624;28;20108;-62
2022/05/03 03:53:05;;;;;;;1.80;1.02;;;15.40;57.60;;;;;;10511886;28;20024;-61
2022/05/03 03:58:06;;;;;;;1.70;1.08;;;15.40;57.70;;;;;;10514663;28;20589;-61
2022/05/03 04:03:07;;;;;;;1.35;1.00;;;15.40;57.60;;;;;;10514326;28;20036;-60
2022/05/03 04:08:08;;;;;;;2.00;1.02;;;15.40;57.70;;;;;;10514090;28;20060;-60
2022/05/03 04:13:12;;;;;;;1.33;1.02;;;15.40;57.60;;;;;;10498494;28;20418;-59
2022/05/03 04:18:12;;;;;;;1.30;1.10;;;15.40;57.60;;;;;;10513846;28;20028;-60
2022/05/03 04:23:21;;;;;;;1.70;1.48;;;15.40;57.50;;;;;;10498047;28;20078;-60
2022/05/03 04:28:22;;;;;;;1.63;1.25;;;15.40;57.50;;;;;;10497523;28;20278;-60
2022/05/03 04:33:23;;;;;;;1.40;0.95;;;15.40;57.50;;;;;;10497550;28;20048;-61
2022/05/03 04:38:24;;;;;;;1.40;0.93;;;15.40;57.50;;;;;;10512729;28;20064;-60
2022/05/03 04:43:24;;;;;;;1.42;1.05;;;15.30;57.40;;;;;;10497131;28;20032;-60
2022/05/03 04:48:25;;;;;;;2.03;1.00;;;15.30;57.40;;;;;;10497948;28;20032;-61
2022/05/03 04:53:26;;;;;;;1.55;1.33;;;15.30;57.50;;;;;;10496747;28;20120;-61
2022/05/03 04:58:27;;;;;;;1.77;1.30;;;15.30;57.40;;;;;;10512350;28;20452;-60
2022/05/03 05:03:27;;;;;;;1.52;1.10;;;15.30;57.40;;;;;;10496984;28;20138;-60
2022/05/03 05:08:28;;;;;;;1.60;0.80;;;15.30;57.50;;;;;;10496239;28;20111;-60
2022/05/03 05:13:28;;;;;;;2.75;1.40;;;15.30;57.40;;;;;;10496166;28;20440;-61
2022/05/03 05:18:29;;;;;;;1.20;1.08;;;15.30;57.50;;;;;;10496055;28;20086;-60
2022/05/03 05:23:30;;;;;;;1.58;0.98;;;15.30;57.50;;;;;;10511786;28;20025;-61
2022/05/03 05:28:31;;;;;;;2.00;1.05;;;15.30;57.50;;;;;;10495829;28;20082;-60
2022/05/03 05:33:32;;;;;;;1.85;1.20;;;15.30;57.50;;;;;;10510957;28;20079;-60
2022/05/03 05:38:32;;;;;;;1.40;0.90;;;15.30;57.50;;;;;;10494961;28;20144;-60
2022/05/03 05:43:36;;;;;;;1.73;1.17;;;15.30;57.50;;;;;;10510992;28;20059;-62
2022/05/03 05:48:39;;;;;;;1.75;1.20;;;15.30;57.60;;;;;;10511294;28;20028;-61
2022/05/03 05:53:40;;;;;;;1.88;1.02;;;15.30;57.60;;;;;;10495090;28;20031;-61
2022/05/03 05:58:42;;;;;;;1.00;0.90;;;15.30;57.70;;;;;;10494058;28;20100;-60
2022/05/03 06:03:43;;;;;;;1.63;1.13;;;15.30;57.70;;;;;;10510691;28;20480;-61
2022/05/03 06:08:44;;;;;;;1.58;1.00;;;15.30;57.80;;;;;;10510486;28;20064;-60
2022/05/03 06:13:44;;;;;;;1.92;1.27;;;15.30;57.80;;;;;;10495329;28;20708;-53
2022/05/03 06:18:45;;;;;;;3.67;1.17;;;15.30;57.80;;;;;;10495356;28;20063;-52
2022/05/03 06:23:46;;;;;;;0.98;0.88;;;15.30;57.80;;;;;;10494931;28;20059;-53
2022/05/03 06:28:47;;;;;;;2.65;1.10;;;15.30;57.90;;;;;;10494441;28;20039;-54
2022/05/03 06:33:47;;;;;;;1.50;0.93;;;15.30;58.00;;;;;;10509882;28;20127;-52
2022/05/03 06:38:48;;;;;;;1.67;1.08;;;15.30;57.90;;;;;;10494774;28;20419;-52
2022/05/03 06:43:49;;;;;;;1.85;1.10;;;15.30;58.00;;;;;;10509883;28;20033;-51
2022/05/03 06:48:50;;;;;;;1.50;0.90;;;15.30;58.10;;;;;;10496177;28;20036;-54
2022/05/03 06:53:50;;;;;;;1.40;0.95;;;15.30;58.10;;;;;;10501605;28;20035;-53
2022/05/03 06:58:51;;;;;;;3.47;0.90;;;15.30;58.20;;;;;;10501594;28;20492;-52
2022/05/03 07:03:51;;;;;;;2.03;0.95;;;15.30;58.10;;;;;;10501397;28;20044;-53
2022/05/03 07:08:52;;;;;;;2.08;0.90;;;15.30;58.20;;;;;;10501058;28;20071;-54
2022/05/03 07:13:53;;;;;;;2.00;1.13;;;15.30;58.10;;;;;;10500696;28;20369;-52
2022/05/03 07:24:13;;;;;;;3.23;2.13;;;15.30;58.20;;;;;;10513599;28;20036;-54
2022/05/03 07:29:14;;;;;;;1.73;1.05;;;15.30;58.40;;;;;;10500390;28;20484;-53
2022/05/03 07:34:15;;;;;;;1.92;1.27;;;15.30;58.50;;;;;;10499886;28;20174;-55
2022/05/03 07:39:15;;;;;;;2.55;1.30;;;15.30;58.60;;;;;;10500329;28;20619;-53
2022/05/03 07:44:16;;;;;;;1.67;1.00;;;15.40;58.60;;;;;;10499693;28;20074;-54
2022/05/03 07:49:17;;;;;;;1.65;1.02;;;15.40;58.60;;;;;;10499556;28;20429;-53
2022/05/03 07:54:17;;;;;;;2.90;1.55;;;15.50;58.60;;;;;;10499346;28;20086;-53
2022/05/03 07:59:21;;;;;;;1.35;0.93;;;15.50;58.70;;;;;;10498915;28;20105;-50
2022/05/03 08:04:22;;;;;;;1.35;1.00;;;15.50;58.60;;;;;;10498324;28;20070;-52
2022/05/03 08:09:22;;;;;;;0.93;0.80;;;15.50;58.60;;;;;;10496252;28;20490;-53
2022/05/03 08:14:23;;;;;;;1.85;1.17;;;15.50;58.60;;;;;;10495756;28;20123;-52
2022/05/03 08:19:24;;;;;;;1.77;1.20;;;15.50;58.70;;;;;;10498457;28;20517;-51
2022/05/03 08:24:26;;;;;;;1.80;1.38;;;15.50;59.30;;;;;;10513733;28;20033;-51
2022/05/03 08:29:27;;;;;;;1.50;1.20;;;15.60;58.70;;;;;;10498091;28;20039;-53
2022/05/03 08:34:28;;;;;;;1.52;1.00;;;15.60;58.70;;;;;;10497349;28;20044;-54
2022/05/03 08:44:48;;;;;;;2.43;1.50;;;15.60;58.90;;;;;;10510693;28;20036;-54
2022/05/03 08:50:11;;;;;;;1.50;1.10;;;15.60;58.90;;;;;;10497002;28;20373;-53
2022/05/03 08:55:12;;;;;;;1.77;1.33;;;15.60;58.90;;;;;;10512152;28;20082;-48
2022/05/03 09:00:16;;;;;;;1.92;1.35;;;15.70;59.00;;;;;;10496511;28;20024;-54
2022/05/03 09:05:18;;;;;;;3.55;1.38;;;15.70;59.00;;;;;;10496515;28;20032;-55
2022/05/03 09:10:37;;;;;;;1.98;1.30;;;15.70;59.10;;;;;;10496140;28;20024;-52
2022/05/03 09:15:38;;;;;;;2.67;1.20;;;15.70;59.80;;;;;;10510813;28;20032;-52
2022/05/03 09:26:26;;;;;;;1.77;1.50;;;15.70;59.20;;;;;;10495359;28;20111;-51
2022/05/03 09:31:46;;;;;;;2.25;1.35;;;15.70;59.40;;;;;;10495518;28;20773;-51
2022/05/03 09:36:50;;;;;;;1.42;1.08;;;15.70;59.60;;;;;;10495373;28;20028;-50
2022/05/03 09:42:10;;;;;;;1.88;1.38;;;15.70;59.50;;;;;;10495831;28;20381;-52
2022/05/03 09:47:11;;;;;;;1.73;1.13;;;15.70;59.50;;;;;;10495455;28;20029;-53
2022/05/03 09:52:33;;;;;;;1.90;1.30;;;15.70;59.60;;;;;;10495313;28;20021;-49
2022/05/03 09:57:39;;;;;;;2.13;1.38;;;15.70;59.70;;;;;;10495036;28;20404;-53
2022/05/03 10:02:42;;;;;;;2.28;1.42;;;15.70;59.80;;;;;;10495498;28;20052;-53
2022/05/03 10:07:44;;;;;;;2.42;1.45;;;15.70;60.50;;;;;;10495542;28;20024;-53
2022/05/03 10:12:47;;;;;;;2.40;1.80;;;15.70;59.90;;;;;;10494824;28;20024;-53
2022/05/03 10:23:28;;;;;;;3.13;1.73;;;15.70;59.90;;;;;;10509469;28;20435;-53
2022/05/03 10:29:03;;;;;;;1.63;1.25;;;15.80;60.00;;;;;;10502595;28;20178;-50
2022/05/03 10:34:04;;;;;;;2.58;1.63;;;15.70;59.90;;;;;;10502271;28;20052;-53
2022/05/03 10:39:16;;;;;;;3.17;1.55;;;15.70;60.00;;;;;;10502164;28;20422;-55
2022/05/03 10:44:44;;;;;;;2.00;1.20;;;15.70;60.10;;;;;;10516592;28;20067;-51
2022/05/03 10:50:12;;;;;;;2.78;1.40;;;15.80;60.10;;;;;;10501987;28;20034;-52
2022/05/03 10:55:14;;;;;;;2.33;1.40;;;15.80;60.10;;;;;;10501815;28;20111;-54
2022/05/03 11:00:15;;;;;;;2.35;1.60;;;15.70;60.10;;;;;;10501370;28;20067;-53
2022/05/03 11:05:17;;;;;;;2.67;1.60;;;15.70;60.10;;;;;;10516777;28;20079;-53
2022/05/03 11:10:43;;;;;;;2.20;1.38;;;15.70;60.20;;;;;;10501137;28;20039;-53
2022/05/03 11:16:20;;;;;;;2.10;1.58;;;15.80;60.20;;;;;;10501052;28;20071;-50
2022/05/03 11:21:21;;;;;;;2.53;2.08;;;15.80;60.10;;;;;;10500490;28;20021;-54
2022/05/03 11:26:24;;;;;;;2.10;1.50;;;15.80;60.00;;;;;;10500838;28;20032;-52
2022/05/03 11:31:26;;;;;;;2.17;1.67;;;15.80;60.10;;;;;;10500568;28;20124;-52
2022/05/03 11:36:28;;;;;;;1.98;1.23;;;15.80;60.20;;;;;;10514649;28;20033;-51
2022/05/03 11:41:30;;;;;;;2.65;1.90;;;15.70;60.20;;;;;;10515460;28;20024;-55
2022/05/03 11:46:31;;;;;;;2.50;1.70;;;15.70;60.30;;;;;;10515106;28;20479;-54
2022/05/03 11:56:57;;;;;;;1.92;1.40;;;15.70;60.50;;;;;;10499980;28;20048;-52
2022/05/03 12:02:20;;;;;;;2.85;1.75;;;15.70;60.50;;;;;;10514819;28;20040;-52
2022/05/03 12:07:20;;;;;;;1.50;1.20;;;15.70;60.50;;;;;;10514197;28;20463;-52
2022/05/03 12:12:44;;;;;;;2.15;1.40;;;15.80;60.60;;;;;;10498914;28;20082;-49
2022/05/03 12:18:19;;;;;;;2.35;1.38;;;15.80;60.40;;;;;;10498482;28;20127;-52
2022/05/03 12:23:24;;;;;;;2.80;1.45;;;15.80;60.40;;;;;;10493037;28;20478;-53
2022/05/03 12:28:43;;;;;;;2.17;1.48;;;15.70;60.50;;;;;;10498417;28;20151;-52
2022/05/03 12:33:56;;;;;;;2.03;1.40;;;15.70;60.50;;;;;;10497864;28;20063;-52
2022/05/03 12:39:15;;;;;;;2.35;1.55;;;15.70;60.50;;;;;;10497555;28;20032;-53
2022/05/03 12:44:18;;;;;;;1.63;1.30;;;15.70;60.60;;;;;;10497561;28;20046;-51
2022/05/03 12:49:18;;;;;;;2.45;1.65;;;15.70;60.70;;;;;;10496943;28;20477;-50
2022/05/03 12:54:19;;;;;;;2.78;1.70;;;15.70;60.70;;;;;;10497369;28;20071;-52
2022/05/03 12:59:22;;;;;;;1.98;1.48;;;15.60;60.80;;;;;;10495517;28;20055;-53
2022/05/03 13:04:26;;;;;;;1.85;1.40;;;15.60;60.80;;;;;;10496519;28;20039;-53
2022/05/03 13:09:27;;;;;;;2.05;1.38;;;15.60;60.80;;;;;;10495115;28;20060;-53
2022/05/03 13:14:29;;;;;;;2.75;2.05;;;15.60;60.80;;;;;;10496342;28;20075;-51
2022/05/03 13:19:30;;;;;;;3.42;2.20;;;15.60;60.80;;;;;;10496168;28;20535;-53
2022/05/03 13:24:31;;;;;;;3.08;2.25;;;15.60;60.80;;;;;;10511380;28;20438;-53
2022/05/03 13:29:32;;;;;;;2.72;1.52;;;15.60;60.80;;;;;;10495842;28;20082;-53
2022/05/03 13:34:32;;;;;;;3.40;2.13;;;15.60;60.90;;;;;;10495487;28;20120;-54
2022/05/03 13:44:53;;;;;;;3.03;1.90;;;15.60;60.90;;;;;;10496585;28;20086;-53
2022/05/03 13:49:54;;;;;;;3.05;1.85;;;15.60;60.80;;;;;;10495647;28;20028;-51
2022/05/03 13:54:54;;;;;;;3.00;2.15;;;15.50;60.90;;;;;;10510763;28;20119;-53
2022/05/03 13:59:55;;;;;;;3.58;2.08;;;15.60;60.90;;;;;;10518295;28;20483;-49
2022/05/03 14:04:56;;;;;;;3.45;2.22;;;15.60;61.00;;;;;;10509120;28;20472;-52
2022/05/03 14:09:57;;;;;;;3.30;1.90;;;15.60;60.90;;;;;;10508631;28;20040;-49
2022/05/03 14:14:57;;;;;;;4.05;2.60;;;15.50;60.80;;;;;;10508575;28;20472;-49
2022/05/03 14:19:58;;;;;;;3.85;2.60;;;15.60;60.90;;;;;;10509189;28;20032;-52
2022/05/03 14:24:59;;;;;;;4.60;2.78;;;15.60;61.00;;;;;;10508472;28;20037;-53
2022/05/03 14:29:59;;;;;;;3.60;2.28;;;15.60;61.00;;;;;;10508758;28;20099;-52
2022/05/03 14:35:00;;;;;;;3.88;1.98;;;15.60;61.00;;;;;;10508045;28;20476;-53
2022/05/03 14:40:02;;;;;;;4.55;2.70;;;15.60;61.10;;;;;;10508183;28;20025;-52
2022/05/03 14:45:07;;;;;;;3.70;1.95;;;15.60;61.10;;;;;;10523499;28;20033;-53
2022/05/03 14:50:08;;;;;;;2.90;2.10;;;15.60;61.10;;;;;;10508504;28;20087;-52
2022/05/03 14:55:09;;;;;;;4.10;2.78;;;15.60;61.10;;;;;;10507780;28;20138;-53
2022/05/03 15:05:33;;;;;;;4.53;2.97;;;15.60;61.10;;;;;;10508273;28;20041;-54
2022/05/03 15:10:37;;;;;;;4.15;2.45;;;15.60;61.70;;;;;;10520552;28;20029;-52
2022/05/03 15:15:41;;;;;;;3.30;2.40;;;15.60;61.10;;;;;;10516493;28;20066;-51
2022/05/03 15:20:41;;;;;;;3.40;2.40;;;15.60;61.10;;;;;;10515931;28;20100;-52
2022/05/03 15:25:43;;;;;;;4.00;2.55;;;15.60;61.10;;;;;;10516204;28;20032;-49
2022/05/03 15:30:47;;;;;;;3.25;2.22;;;15.60;61.10;;;;;;10500690;28;20428;-51
2022/05/03 15:35:48;;;;;;;3.95;2.75;;;15.50;61.10;;;;;;10515354;28;20126;-54
2022/05/03 15:40:49;;;;;;;4.40;2.65;;;15.60;61.10;;;;;;10500118;28;20362;-53
2022/05/03 15:45:50;;;;;;;5.15;3.10;;;15.60;61.10;;;;;;10499924;28;20039;-51
2022/05/03 15:50:51;;;;;;;3.35;2.33;;;15.60;61.10;;;;;;10499871;28;20074;-54
2022/05/03 15:55:52;;;;;;;3.38;2.30;;;15.60;61.10;;;;;;10499384;28;20028;-53
2022/05/03 16:00:56;;;;;;;3.25;2.40;;;15.60;61.10;;;;;;10499104;28;20020;-52
2022/05/03 16:05:57;;;;;;;3.88;2.85;;;15.60;61.10;;;;;;10514542;28;20032;-53
2022/05/03 16:10:59;;;;;;;4.70;2.63;;;15.60;61.10;;;;;;10498648;28;20074;-52
2022/05/03 16:16:00;;;;;;;3.05;2.38;;;15.60;61.10;;;;;;10498571;28;20028;-48
2022/05/03 16:21:00;;;;;;;5.93;3.03;;;15.60;61.10;;;;;;10497900;28;20009;-52
2022/05/03 16:26:01;;;;;;;3.40;2.40;;;15.60;61.10;;;;;;10513835;28;20060;-51
2022/05/03 16:31:06;;;;;;;4.35;2.95;;;15.60;61.10;;;;;;10513291;28;20028;-50
2022/05/03 16:46:46;;;;;;;4.60;2.57;;;15.60;61.10;;;;;;10510545;28;20275;-54
2022/05/03 16:51:47;;;;;;;3.28;2.08;;;15.60;61.10;;;;;;10497540;28;20488;-54
2022/05/03 16:56:48;;;;;;;3.78;2.30;;;15.60;61.10;;;;;;10497110;28;20028;-50
2022/05/03 17:01:49;;;;;;;3.15;2.17;;;15.60;61.10;;;;;;10512374;28;20028;-53
2022/05/03 17:06:50;;;;;;;4.53;2.15;;;15.60;61.00;;;;;;10512162;28;20412;-54
2022/05/03 17:11:51;;;;;;;6.07;3.00;;;15.60;61.10;;;;;;10496304;28;20028;-50
2022/05/03 17:16:52;;;;;;;3.08;2.10;;;15.60;61.10;;;;;;10496524;28;20365;-54
2022/05/03 17:21:55;;;;;;;3.55;2.50;;;15.60;61.00;;;;;;10496021;28;20033;-49
2022/05/03 17:26:56;;;;;;;3.80;2.65;;;15.60;61.10;;;;;;10511497;28;20031;-53
2022/05/03 17:31:57;;;;;;;4.30;2.70;;;15.60;61.10;;;;;;10495558;28;20132;-52
2022/05/03 17:36:58;;;;;;;4.85;2.70;;;15.60;61.10;;;;;;10495245;28;20503;-52
2022/05/03 17:41:59;;;;;;;3.50;2.50;;;15.60;61.10;;;;;;10495561;28;20035;-53
2022/05/03 17:46:59;;;;;;;3.50;2.83;;;15.60;61.00;;;;;;10495720;28;20388;-53
2022/05/03 17:57:25;;;;;;;3.40;2.20;;;15.60;61.10;;;;;;10509100;28;20482;-54
2022/05/03 18:02:26;;;;;;;4.82;2.40;;;15.60;61.00;;;;;;10495038;28;20104;-50
2022/05/03 18:07:27;;;;;;;3.25;2.40;;;15.60;61.00;;;;;;10511055;28;20040;-54
2022/05/03 18:12:27;;;;;;;3.45;2.80;;;15.60;61.10;;;;;;10494903;28;20041;-51
2022/05/03 18:17:28;;;;;;;3.65;2.55;;;15.60;61.10;;;;;;10495080;28;20079;-50
2022/05/03 18:22:29;;;;;;;3.33;2.28;;;15.60;61.10;;;;;;10494815;28;20060;-53
2022/05/03 18:27:29;;;;;;;3.10;2.42;;;15.60;61.10;;;;;;10494896;28;20028;-51
2022/05/03 18:32:30;;;;;;;4.00;2.40;;;15.60;61.10;;;;;;10494347;28;20069;-50
2022/05/03 18:37:31;;;;;;;3.58;2.05;;;15.60;61.10;;;;;;10510144;28;20024;-50
2022/05/03 18:42:31;;;;;;;3.50;2.10;;;15.60;61.10;;;;;;10494468;28;20032;-55
2022/05/03 18:47:32;;;;;;;2.95;2.20;;;15.60;61.10;;;;;;10500596;28;20116;-51
2022/05/03 18:52:33;;;;;;;3.53;2.38;;;15.60;61.10;;;;;;10501786;28;20377;-54
2022/05/03 18:57:35;;;;;;;3.13;2.20;;;15.60;61.10;;;;;;10501768;28;20077;-54
2022/05/03 19:02:36;;;;;;;3.03;2.47;;;15.50;61.00;;;;;;10501454;28;20031;-52
2022/05/03 19:07:37;;;;;;;3.13;2.10;;;15.50;61.00;;;;;;10501424;28;20115;-51
2022/05/03 19:12:38;;;;;;;3.38;2.95;;;15.60;61.00;;;;;;10501089;28;20111;-52
2022/05/03 19:17:39;;;;;;;4.70;2.25;;;15.60;61.00;;;;;;10501104;28;20495;-53
2022/05/03 19:22:40;;;;;;;2.70;2.22;;;15.50;61.00;;;;;;10501026;28;20078;-52
2022/05/03 19:33:07;;;;;;;2.45;1.98;;;15.50;61.50;;;;;;10500222;28;20041;-51
2022/05/03 19:38:10;;;;;;;3.75;2.28;;;15.50;60.90;;;;;;10515800;28;20040;-53
2022/05/03 19:43:15;;;;;;;3.47;1.80;;;15.50;60.90;;;;;;10499908;28;20143;-51
2022/05/03 19:48:16;;;;;;;3.13;2.40;;;15.50;60.90;;;;;;10498828;28;20056;-53
2022/05/03 19:53:20;;;;;;;3.30;2.15;;;15.50;60.80;;;;;;10514516;28;20025;-51
2022/05/03 19:58:20;;;;;;;2.88;2.15;;;15.50;60.80;;;;;;10496413;28;20025;-52
2022/05/03 20:03:21;;;;;;;2.55;1.90;;;15.50;60.80;;;;;;10498668;28;20273;-52
2022/05/03 20:08:35;;;;;;;3.28;2.33;;;15.50;61.40;;;;;;10498449;28;20028;-53
2022/05/03 20:13:38;;;;;;;3.00;2.08;;;15.50;60.80;;;;;;10497785;28;20028;-51
2022/05/03 20:18:39;;;;;;;3.20;2.20;;;15.50;60.80;;;;;;10497537;28;20099;-52
2022/05/03 20:23:42;;;;;;;2.70;1.92;;;15.50;60.80;;;;;;10497357;28;20131;-50
2022/05/03 20:28:43;;;;;;;2.65;2.22;;;15.50;60.70;;;;;;10497004;28;20032;-50
2022/05/03 20:33:44;;;;;;;3.08;2.53;;;15.50;60.70;;;;;;10496766;28;20037;-53
2022/05/03 20:38:45;;;;;;;2.88;1.80;;;15.50;60.70;;;;;;10496588;28;20064;-54
2022/05/03 20:43:46;;;;;;;3.15;2.85;;;15.50;60.70;;;;;;10496903;28;20044;-49
2022/05/03 20:49:01;;;;;;;3.15;1.67;;;15.50;60.60;;;;;;10496236;28;20036;-53
2022/05/03 20:54:03;;;;;;;3.30;1.95;;;15.50;60.60;;;;;;10511809;28;20488;-52
2022/05/03 20:59:03;;;;;;;3.90;2.17;;;15.50;60.60;;;;;;10511372;28;20028;-54
2022/05/03 21:04:10;;;;;;;3.15;2.35;;;15.50;60.60;;;;;;10495653;28;20107;-52
2022/05/03 21:09:11;;;;;;;2.40;1.77;;;15.50;60.60;;;;;;10495338;28;20447;-55
2022/05/03 21:14:12;;;;;;;2.70;1.95;;;15.50;60.50;;;;;;10495197;28;20033;-54
2022/05/03 21:19:12;;;;;;;3.30;1.95;;;15.50;60.50;;;;;;10495290;28;20031;-53
2022/05/03 21:24:13;;;;;;;2.78;1.98;;;15.50;60.50;;;;;;10495505;28;20077;-52
2022/05/03 21:29:14;;;;;;;2.90;1.88;;;15.50;60.50;;;;;;10495492;28;20103;-53
2022/05/03 21:34:16;;;;;;;3.00;1.90;;;15.50;60.50;;;;;;10494436;28;20130;-51
2022/05/03 21:39:17;;;;;;;2.28;1.83;;;15.50;60.50;;;;;;10494706;28;20036;-51
2022/05/03 21:44:18;;;;;;;2.80;2.22;;;15.50;60.40;;;;;;10494767;28;20052;-54
2022/05/03 21:49:19;;;;;;;3.40;1.92;;;15.50;60.40;;;;;;10494328;28;20085;-53
2022/05/03 21:54:21;;;;;;;3.10;2.08;;;15.50;60.40;;;;;;10509657;28;20058;-55
2022/05/03 21:59:22;;;;;;;2.47;2.00;;;15.50;60.40;;;;;;10494180;28;20016;-51
2022/05/03 22:04:23;;;;;;;2.45;1.70;;;15.50;60.40;;;;;;10494109;28;20029;-54
2022/05/03 22:09:24;;;;;;;2.58;1.90;;;15.50;60.40;;;;;;10494030;28;20079;-51
2022/05/03 22:14:25;;;;;;;2.55;2.05;;;15.50;60.40;;;;;;10509358;28;20115;-49
2022/05/03 22:19:25;;;;;;;3.47;2.20;;;15.50;60.40;;;;;;10495885;28;20092;-49
2022/05/03 22:24:26;;;;;;;3.03;2.10;;;15.50;60.30;;;;;;10501928;28;20064;-50
2022/05/03 22:29:27;;;;;;;2.33;1.73;;;15.50;60.30;;;;;;10502291;28;20068;-52
2022/05/03 22:34:27;;;;;;;3.38;2.47;;;15.50;60.30;;;;;;10501364;28;20404;-52
2022/05/03 22:39:28;;;;;;;2.50;1.92;;;15.50;60.30;;;;;;10502374;28;20040;-53
2022/05/03 22:44:28;;;;;;;1.95;1.42;;;15.40;60.30;;;;;;10516877;28;20064;-52
2022/05/03 22:49:29;;;;;;;3.25;1.77;;;15.50;60.30;;;;;;10501009;28;20496;-53
2022/05/03 22:54:30;;;;;;;2.95;1.80;;;15.40;60.20;;;;;;10516380;28;20032;-53
2022/05/03 22:59:30;;;;;;;2.47;1.80;;;15.40;60.20;;;;;;10516692;28;20102;-51
2022/05/03 23:04:31;;;;;;;3.30;2.38;;;15.40;60.20;;;;;;10500935;28;20056;-53
2022/05/03 23:09:32;;;;;;;2.08;1.52;;;15.40;60.10;;;;;;10516203;28;20489;-52
2022/05/03 23:14:33;;;;;;;2.65;1.63;;;15.40;60.10;;;;;;10500143;28;20480;-54
2022/05/03 23:19:34;;;;;;;2.08;1.55;;;15.50;60.20;;;;;;10499923;28;20385;-50
2022/05/03 23:24:35;;;;;;;1.02;0.85;;;15.40;60.10;;;;;;10499625;28;20028;-54
2022/05/03 23:29:36;;;;;;;2.40;1.48;;;15.40;60.10;;;;;;10515378;28;20119;-52
2022/05/03 23:40:02;;;;;;;2.80;2.45;;;15.40;60.10;;;;;;10513144;28;20036;-52
2022/05/03 23:50:26;;;;;;;2.28;1.67;;;15.40;60.00;;;;;;10498777;28;20036;-53
2022/05/03 23:55:26;;;;;;;1.98;1.35;;;15.40;60.00;;;;;;10514810;28;20025;-54
